Welcome to the New NWS' Forecast!
Most changes are behind the scenes, but click here for differences you might notice.

Terminal Aerodrome Forecast (TAF)

Issued by National Weather Service (NWS)

                            
000
FTUS42 KKEY 161429 AAA
TAFEYW
TAF AMD
KEYW 161429Z 1614/1712 10014G23KT P6SM SCT025
     FM170600 12012G20KT P6SM VCSH SCT025 SCT050
      TEMPO 1708/1712 3SM SHRA BKN025=